Huvudsida
METAR-TAF:

METAR-TAF

Flygplatser :

Västmannaöarnas flygplats

Västmannaöarna, Island

latitud: 63-24N, longitud: 020-17W, höjd: 118 m

Aktuellt väderrapport

Denna rapport gjordes för 54 minuter sedan, klockan 16:48 UTC
Vind 6 kt från syd/sydost
Temperatur 10°C
Fuktighet 87%
Tryck 1014 hPa
Sikt 10 km eller mer
Inga moln under 1 500 m eller inga cumulonimbus

METAR: BIVM 141648Z 16006KT CAVOK 10/08 Q1014

Tid: 17:42 (17:42 UTC)

Väderprognos

Denna rapport gjordes för 1 timme och 29 minuter sedan, klockan 16:13 UTC
Prognos gäller från 14 kl. 17 UTC till 14 kl. 20 UTC
Vind 5 kt från sydost
Sikt 10 km eller mer
Få moln på en höjd av 1500 ft

TAF: BIVM 141613Z 1417/1420 14005KT 9999 FEW015

Aktuella väderrapporter och prognoser från 4000 flygplatser (METAR- och TAF-rapporter).

De tillgängliga stationerna syns som gula och röda prickar på kartan.

För musen över prickarna för att se namnen på stationerna.

Klicka sedan för att få väderrapporter och prognoser.

För att ändra kartan: Klicka på de gröna knapparna med ett svart kors på för att zooma in; den gröna knappen med ett streck på för att zooma ut; eller på de gröna pilarna för angränsande kartor.


METAR-TAF: